sensor_id;sensor_type;location;lat;lon;timestamp;temperature;humidity
24146;DHT22;12308;50.948;4.706;2023-09-07T00:01:56;19.90;99.90
24146;DHT22;12308;50.948;4.706;2023-09-07T00:04:22;19.90;99.90
24146;DHT22;12308;50.948;4.706;2023-09-07T00:06:49;20.00;99.90
24146;DHT22;12308;50.948;4.706;2023-09-07T00:09:16;19.90;99.90
24146;DHT22;12308;50.948;4.706;2023-09-07T00:11:44;19.80;99.90
24146;DHT22;12308;50.948;4.706;2023-09-07T00:14:10;19.80;99.90
24146;DHT22;12308;50.948;4.706;2023-09-07T00:16:36;19.80;99.90
24146;DHT22;12308;50.948;4.706;2023-09-07T00:19:04;19.80;99.90
24146;DHT22;12308;50.948;4.706;2023-09-07T00:21:30;19.80;99.90
24146;DHT22;12308;50.948;4.706;2023-09-07T00:23:56;19.70;99.90
24146;DHT22;12308;50.948;4.706;2023-09-07T00:26:21;19.90;99.90
24146;DHT22;12308;50.948;4.706;2023-09-07T00:28:47;19.80;99.90
24146;DHT22;12308;50.948;4.706;2023-09-07T00:31:13;19.80;99.90
24146;DHT22;12308;50.948;4.706;2023-09-07T00:33:39;19.70;99.90
24146;DHT22;12308;50.948;4.706;2023-09-07T00:36:05;19.80;99.90
24146;DHT22;12308;50.948;4.706;2023-09-07T00:38:31;19.80;99.90
24146;DHT22;12308;50.948;4.706;2023-09-07T00:40:56;19.70;99.90
24146;DHT22;12308;50.948;4.706;2023-09-07T00:43:22;19.70;99.90
24146;DHT22;12308;50.948;4.706;2023-09-07T00:45:48;19.70;99.90
24146;DHT22;12308;50.948;4.706;2023-09-07T00:48:15;19.60;99.90
24146;DHT22;12308;50.948;4.706;2023-09-07T00:50:42;19.70;99.90
24146;DHT22;12308;50.948;4.706;2023-09-07T00:53:09;19.60;99.90
24146;DHT22;12308;50.948;4.706;2023-09-07T00:55:36;19.50;99.90
24146;DHT22;12308;50.948;4.706;2023-09-07T00:58:04;19.50;99.90
24146;DHT22;12308;50.948;4.706;2023-09-07T01:00:30;19.40;99.90
24146;DHT22;12308;50.948;4.706;2023-09-07T01:02:56;19.30;99.90
24146;DHT22;12308;50.948;4.706;2023-09-07T01:05:27;19.30;99.90
24146;DHT22;12308;50.948;4.706;2023-09-07T01:07:59;19.30;99.90
24146;DHT22;12308;50.948;4.706;2023-09-07T01:10:26;19.20;99.90
24146;DHT22;12308;50.948;4.706;2023-09-07T01:12:51;19.20;99.90
24146;DHT22;12308;50.948;4.706;2023-09-07T01:15:17;19.20;99.90
24146;DHT22;12308;50.948;4.706;2023-09-07T01:17:43;19.30;99.90
24146;DHT22;12308;50.948;4.706;2023-09-07T01:20:10;19.20;99.90
24146;DHT22;12308;50.948;4.706;2023-09-07T01:22:38;19.10;99.90
24146;DHT22;12308;50.948;4.706;2023-09-07T01:25:06;19.20;99.90
24146;DHT22;12308;50.948;4.706;2023-09-07T01:27:33;19.20;99.90
24146;DHT22;12308;50.948;4.706;2023-09-07T01:29:59;19.10;99.90
24146;DHT22;12308;50.948;4.706;2023-09-07T01:32:24;19.10;99.90
24146;DHT22;12308;50.948;4.706;2023-09-07T01:34:55;19.10;99.90
24146;DHT22;12308;50.948;4.706;2023-09-07T01:37:22;19.10;99.90
24146;DHT22;12308;50.948;4.706;2023-09-07T01:39:47;19.00;99.90
24146;DHT22;12308;50.948;4.706;2023-09-07T01:42:14;19.10;99.90
24146;DHT22;12308;50.948;4.706;2023-09-07T01:44:40;19.00;99.90
24146;DHT22;12308;50.948;4.706;2023-09-07T01:47:06;19.00;99.90
24146;DHT22;12308;50.948;4.706;2023-09-07T01:49:32;19.00;99.90
24146;DHT22;12308;50.948;4.706;2023-09-07T01:51:57;18.90;99.90
24146;DHT22;12308;50.948;4.706;2023-09-07T01:54:23;18.80;99.90
24146;DHT22;12308;50.948;4.706;2023-09-07T01:56:49;18.70;99.90
24146;DHT22;12308;50.948;4.706;2023-09-07T01:59:14;18.60;99.90
24146;DHT22;12308;50.948;4.706;2023-09-07T02:01:40;18.60;99.90
24146;DHT22;12308;50.948;4.706;2023-09-07T02:04:06;18.50;99.90
24146;DHT22;12308;50.948;4.706;2023-09-07T02:06:32;18.40;99.90
24146;DHT22;12308;50.948;4.706;2023-09-07T02:08:57;18.50;99.90
24146;DHT22;12308;50.948;4.706;2023-09-07T02:11:23;18.40;99.90
24146;DHT22;12308;50.948;4.706;2023-09-07T02:13:49;18.30;99.90
24146;DHT22;12308;50.948;4.706;2023-09-07T02:16:15;18.20;99.90
24146;DHT22;12308;50.948;4.706;2023-09-07T02:18:42;18.10;99.90
24146;DHT22;12308;50.948;4.706;2023-09-07T02:21:11;17.90;99.90
24146;DHT22;12308;50.948;4.706;2023-09-07T02:23:36;17.90;99.90
24146;DHT22;12308;50.948;4.706;2023-09-07T02:26:03;18.00;99.90
24146;DHT22;12308;50.948;4.706;2023-09-07T02:28:29;18.10;99.90
24146;DHT22;12308;50.948;4.706;2023-09-07T02:31:01;17.90;99.90
24146;DHT22;12308;50.948;4.706;2023-09-07T02:33:27;17.90;99.90
24146;DHT22;12308;50.948;4.706;2023-09-07T02:35:53;17.90;99.90
24146;DHT22;12308;50.948;4.706;2023-09-07T02:38:19;17.90;99.90
24146;DHT22;12308;50.948;4.706;2023-09-07T02:40:45;17.90;99.90
24146;DHT22;12308;50.948;4.706;2023-09-07T02:43:11;17.90;99.90
24146;DHT22;12308;50.948;4.706;2023-09-07T02:45:38;17.80;99.90
24146;DHT22;12308;50.948;4.706;2023-09-07T02:48:05;17.70;99.90
24146;DHT22;12308;50.948;4.706;2023-09-07T02:50:32;17.60;99.90
24146;DHT22;12308;50.948;4.706;2023-09-07T02:52:58;17.60;99.90
24146;DHT22;12308;50.948;4.706;2023-09-07T02:55:24;17.60;99.90
24146;DHT22;12308;50.948;4.706;2023-09-07T02:57:49;17.60;99.90
24146;DHT22;12308;50.948;4.706;2023-09-07T03:00:15;17.60;99.90
24146;DHT22;12308;50.948;4.706;2023-09-07T03:02:43;17.50;99.90
24146;DHT22;12308;50.948;4.706;2023-09-07T03:05:09;17.60;99.90
24146;DHT22;12308;50.948;4.706;2023-09-07T03:07:35;17.50;99.90
24146;DHT22;12308;50.948;4.706;2023-09-07T03:10:01;17.50;99.90
24146;DHT22;12308;50.948;4.706;2023-09-07T03:12:27;17.60;99.90
24146;DHT22;12308;50.948;4.706;2023-09-07T03:14:53;17.50;99.90
24146;DHT22;12308;50.948;4.706;2023-09-07T03:17:19;17.50;99.90
24146;DHT22;12308;50.948;4.706;2023-09-07T03:19:47;17.40;99.90
24146;DHT22;12308;50.948;4.706;2023-09-07T03:22:13;17.40;99.90
24146;DHT22;12308;50.948;4.706;2023-09-07T03:24:39;17.30;99.90
24146;DHT22;12308;50.948;4.706;2023-09-07T03:27:05;17.30;99.90
24146;DHT22;12308;50.948;4.706;2023-09-07T03:29:34;17.30;99.90
24146;DHT22;12308;50.948;4.706;2023-09-07T03:32:01;17.30;99.90
24146;DHT22;12308;50.948;4.706;2023-09-07T03:34:27;17.30;99.90
24146;DHT22;12308;50.948;4.706;2023-09-07T03:36:53;17.20;99.90
24146;DHT22;12308;50.948;4.706;2023-09-07T03:39:19;17.10;99.90
24146;DHT22;12308;50.948;4.706;2023-09-07T03:41:47;17.00;99.90
24146;DHT22;12308;50.948;4.706;2023-09-07T03:44:13;17.10;99.90
24146;DHT22;12308;50.948;4.706;2023-09-07T03:46:39;17.00;99.90
24146;DHT22;12308;50.948;4.706;2023-09-07T03:49:04;16.90;99.90
24146;DHT22;12308;50.948;4.706;2023-09-07T03:51:31;16.90;99.90
24146;DHT22;12308;50.948;4.706;2023-09-07T03:53:57;16.90;99.90
24146;DHT22;12308;50.948;4.706;2023-09-07T03:56:22;16.90;99.90
24146;DHT22;12308;50.948;4.706;2023-09-07T03:58:48;17.00;99.90
24146;DHT22;12308;50.948;4.706;2023-09-07T04:01:14;16.90;99.90
24146;DHT22;12308;50.948;4.706;2023-09-07T04:03:40;16.80;99.90
24146;DHT22;12308;50.948;4.706;2023-09-07T04:06:07;16.80;99.90
24146;DHT22;12308;50.948;4.706;2023-09-07T04:08:33;16.80;99.90
24146;DHT22;12308;50.948;4.706;2023-09-07T04:11:03;16.70;99.90
24146;DHT22;12308;50.948;4.706;2023-09-07T04:13:29;16.80;99.90
24146;DHT22;12308;50.948;4.706;2023-09-07T04:15:54;16.90;99.90
24146;DHT22;12308;50.948;4.706;2023-09-07T04:18:20;16.90;99.90
24146;DHT22;12308;50.948;4.706;2023-09-07T04:20:46;16.80;99.90
24146;DHT22;12308;50.948;4.706;2023-09-07T04:23:12;16.70;99.90
24146;DHT22;12308;50.948;4.706;2023-09-07T04:25:37;16.70;99.90
24146;DHT22;12308;50.948;4.706;2023-09-07T04:28:06;16.70;99.90
24146;DHT22;12308;50.948;4.706;2023-09-07T04:30:41;16.70;99.90
24146;DHT22;12308;50.948;4.706;2023-09-07T04:33:07;16.60;99.90
24146;DHT22;12308;50.948;4.706;2023-09-07T04:35:33;16.70;99.90
24146;DHT22;12308;50.948;4.706;2023-09-07T04:37:59;16.60;99.90
24146;DHT22;12308;50.948;4.706;2023-09-07T04:40:25;16.70;99.90
24146;DHT22;12308;50.948;4.706;2023-09-07T04:42:51;16.70;99.90
24146;DHT22;12308;50.948;4.706;2023-09-07T04:45:17;16.70;99.90
24146;DHT22;12308;50.948;4.706;2023-09-07T04:47:43;16.60;99.90
24146;DHT22;12308;50.948;4.706;2023-09-07T04:50:09;16.70;99.90
24146;DHT22;12308;50.948;4.706;2023-09-07T04:52:35;16.60;99.90
24146;DHT22;12308;50.948;4.706;2023-09-07T04:55:01;16.60;99.90
24146;DHT22;12308;50.948;4.706;2023-09-07T04:57:27;16.70;99.90
24146;DHT22;12308;50.948;4.706;2023-09-07T04:59:53;16.70;99.90
24146;DHT22;12308;50.948;4.706;2023-09-07T05:02:18;16.60;99.90
24146;DHT22;12308;50.948;4.706;2023-09-07T05:04:44;16.60;99.90
24146;DHT22;12308;50.948;4.706;2023-09-07T05:07:10;16.60;99.90
24146;DHT22;12308;50.948;4.706;2023-09-07T05:09:36;16.60;99.90
24146;DHT22;12308;50.948;4.706;2023-09-07T05:12:02;16.60;99.90
24146;DHT22;12308;50.948;4.706;2023-09-07T05:14:27;16.60;99.90
24146;DHT22;12308;50.948;4.706;2023-09-07T05:16:55;16.50;99.90
24146;DHT22;12308;50.948;4.706;2023-09-07T05:19:22;16.60;99.90
24146;DHT22;12308;50.948;4.706;2023-09-07T05:21:48;16.60;99.90
24146;DHT22;12308;50.948;4.706;2023-09-07T05:24:14;16.50;99.90
24146;DHT22;12308;50.948;4.706;2023-09-07T05:26:42;16.50;99.90
24146;DHT22;12308;50.948;4.706;2023-09-07T05:29:08;16.60;99.90
24146;DHT22;12308;50.948;4.706;2023-09-07T05:31:33;16.60;99.90
24146;DHT22;12308;50.948;4.706;2023-09-07T05:33:59;16.50;99.90
24146;DHT22;12308;50.948;4.706;2023-09-07T05:36:26;16.60;99.90
24146;DHT22;12308;50.948;4.706;2023-09-07T05:38:52;16.60;99.90
24146;DHT22;12308;50.948;4.706;2023-09-07T05:41:18;16.60;99.90
24146;DHT22;12308;50.948;4.706;2023-09-07T05:43:44;16.60;99.90
24146;DHT22;12308;50.948;4.706;2023-09-07T05:46:10;16.70;99.90
24146;DHT22;12308;50.948;4.706;2023-09-07T05:48:36;16.70;99.90
24146;DHT22;12308;50.948;4.706;2023-09-07T05:51:01;16.90;99.90
24146;DHT22;12308;50.948;4.706;2023-09-07T05:53:27;16.90;99.90
24146;DHT22;12308;50.948;4.706;2023-09-07T05:55:53;17.00;99.90
24146;DHT22;12308;50.948;4.706;2023-09-07T05:58:19;17.10;99.90
24146;DHT22;12308;50.948;4.706;2023-09-07T06:00:44;17.10;99.90
24146;DHT22;12308;50.948;4.706;2023-09-07T06:03:10;17.10;99.90
24146;DHT22;12308;50.948;4.706;2023-09-07T06:05:37;17.10;99.90
24146;DHT22;12308;50.948;4.706;2023-09-07T06:08:04;17.00;99.90
24146;DHT22;12308;50.948;4.706;2023-09-07T06:10:31;17.10;99.90
24146;DHT22;12308;50.948;4.706;2023-09-07T06:12:58;17.20;99.90
24146;DHT22;12308;50.948;4.706;2023-09-07T06:15:23;17.30;99.90
24146;DHT22;12308;50.948;4.706;2023-09-07T06:17:49;17.40;99.90
24146;DHT22;12308;50.948;4.706;2023-09-07T06:20:15;17.50;99.90
24146;DHT22;12308;50.948;4.706;2023-09-07T06:22:41;17.50;99.90
24146;DHT22;12308;50.948;4.706;2023-09-07T06:25:07;17.60;99.90
24146;DHT22;12308;50.948;4.706;2023-09-07T06:27:33;17.80;99.90
24146;DHT22;12308;50.948;4.706;2023-09-07T06:29:59;17.90;99.90
24146;DHT22;12308;50.948;4.706;2023-09-07T06:32:24;18.00;99.90
24146;DHT22;12308;50.948;4.706;2023-09-07T06:34:50;18.10;99.90
24146;DHT22;12308;50.948;4.706;2023-09-07T06:37:17;18.10;99.90
24146;DHT22;12308;50.948;4.706;2023-09-07T06:39:42;18.30;99.90
24146;DHT22;12308;50.948;4.706;2023-09-07T06:42:09;18.40;99.90
24146;DHT22;12308;50.948;4.706;2023-09-07T06:44:36;18.50;99.90
24146;DHT22;12308;50.948;4.706;2023-09-07T06:47:02;18.60;99.90
24146;DHT22;12308;50.948;4.706;2023-09-07T06:49:27;18.60;99.90
24146;DHT22;12308;50.948;4.706;2023-09-07T06:51:56;18.60;99.90
24146;DHT22;12308;50.948;4.706;2023-09-07T06:54:21;18.80;99.90
24146;DHT22;12308;50.948;4.706;2023-09-07T06:56:47;18.90;99.90
24146;DHT22;12308;50.948;4.706;2023-09-07T06:59:13;19.10;99.90
24146;DHT22;12308;50.948;4.706;2023-09-07T07:01:39;19.20;99.90
24146;DHT22;12308;50.948;4.706;2023-09-07T07:04:05;19.30;99.90
24146;DHT22;12308;50.948;4.706;2023-09-07T07:06:30;19.50;99.90
24146;DHT22;12308;50.948;4.706;2023-09-07T07:08:56;19.50;99.90
24146;DHT22;12308;50.948;4.706;2023-09-07T07:11:22;19.60;99.90
24146;DHT22;12308;50.948;4.706;2023-09-07T07:13:47;19.70;99.90
24146;DHT22;12308;50.948;4.706;2023-09-07T07:16:13;19.80;99.90
24146;DHT22;12308;50.948;4.706;2023-09-07T07:18:39;19.80;99.90
24146;DHT22;12308;50.948;4.706;2023-09-07T07:21:05;19.90;99.90
24146;DHT22;12308;50.948;4.706;2023-09-07T07:23:31;19.90;99.90
24146;DHT22;12308;50.948;4.706;2023-09-07T07:25:57;20.00;99.90
24146;DHT22;12308;50.948;4.706;2023-09-07T07:28:22;20.10;99.90
24146;DHT22;12308;50.948;4.706;2023-09-07T07:30:48;20.10;99.90
24146;DHT22;12308;50.948;4.706;2023-09-07T07:33:14;20.30;99.90
24146;DHT22;12308;50.948;4.706;2023-09-07T07:35:40;20.50;99.90
24146;DHT22;12308;50.948;4.706;2023-09-07T07:38:05;20.50;99.90
24146;DHT22;12308;50.948;4.706;2023-09-07T07:40:33;20.60;99.90
24146;DHT22;12308;50.948;4.706;2023-09-07T07:42:59;20.60;99.90
24146;DHT22;12308;50.948;4.706;2023-09-07T07:45:25;20.80;99.90
24146;DHT22;12308;50.948;4.706;2023-09-07T07:47:51;20.90;99.90
24146;DHT22;12308;50.948;4.706;2023-09-07T07:50:17;20.90;99.90
24146;DHT22;12308;50.948;4.706;2023-09-07T07:52:44;21.00;99.90
24146;DHT22;12308;50.948;4.706;2023-09-07T07:55:10;21.00;99.90
24146;DHT22;12308;50.948;4.706;2023-09-07T07:57:36;21.20;99.90
24146;DHT22;12308;50.948;4.706;2023-09-07T08:00:06;21.60;99.90
24146;DHT22;12308;50.948;4.706;2023-09-07T08:02:32;21.80;99.90
24146;DHT22;12308;50.948;4.706;2023-09-07T08:04:58;21.90;99.90
24146;DHT22;12308;50.948;4.706;2023-09-07T08:07:25;21.80;99.90
24146;DHT22;12308;50.948;4.706;2023-09-07T08:09:52;21.90;99.90
24146;DHT22;12308;50.948;4.706;2023-09-07T08:12:17;21.90;99.90
24146;DHT22;12308;50.948;4.706;2023-09-07T08:14:43;22.00;99.90
24146;DHT22;12308;50.948;4.706;2023-09-07T08:17:09;22.30;99.90
24146;DHT22;12308;50.948;4.706;2023-09-07T08:19:34;22.30;99.90
24146;DHT22;12308;50.948;4.706;2023-09-07T08:22:00;22.30;99.90
24146;DHT22;12308;50.948;4.706;2023-09-07T08:24:29;22.20;99.90
24146;DHT22;12308;50.948;4.706;2023-09-07T08:26:55;22.30;99.90
24146;DHT22;12308;50.948;4.706;2023-09-07T08:29:23;22.40;99.90
24146;DHT22;12308;50.948;4.706;2023-09-07T08:31:52;22.60;99.90
24146;DHT22;12308;50.948;4.706;2023-09-07T08:34:18;22.80;99.90
24146;DHT22;12308;50.948;4.706;2023-09-07T08:36:47;22.80;99.90
24146;DHT22;12308;50.948;4.706;2023-09-07T08:39:16;22.70;99.90
24146;DHT22;12308;50.948;4.706;2023-09-07T08:41:43;23.00;99.90
24146;DHT22;12308;50.948;4.706;2023-09-07T08:44:10;23.20;99.90
24146;DHT22;12308;50.948;4.706;2023-09-07T08:46:40;23.30;99.90
24146;DHT22;12308;50.948;4.706;2023-09-07T08:49:06;23.30;99.90
24146;DHT22;12308;50.948;4.706;2023-09-07T08:51:32;23.40;99.90
24146;DHT22;12308;50.948;4.706;2023-09-07T08:53:58;23.40;99.90
24146;DHT22;12308;50.948;4.706;2023-09-07T08:56:24;23.50;99.90
24146;DHT22;12308;50.948;4.706;2023-09-07T08:58:50;23.50;99.90
24146;DHT22;12308;50.948;4.706;2023-09-07T09:01:17;23.50;99.90
24146;DHT22;12308;50.948;4.706;2023-09-07T09:03:42;23.60;99.90
24146;DHT22;12308;50.948;4.706;2023-09-07T09:06:09;23.60;99.90
24146;DHT22;12308;50.948;4.706;2023-09-07T09:08:47;23.60;99.90
24146;DHT22;12308;50.948;4.706;2023-09-07T09:11:17;24.00;99.90
24146;DHT22;12308;50.948;4.706;2023-09-07T09:13:43;24.30;99.90
24146;DHT22;12308;50.948;4.706;2023-09-07T09:16:10;24.40;99.90
24146;DHT22;12308;50.948;4.706;2023-09-07T09:18:36;24.50;99.90
24146;DHT22;12308;50.948;4.706;2023-09-07T09:21:02;24.40;99.90
24146;DHT22;12308;50.948;4.706;2023-09-07T09:23:33;24.50;99.90
24146;DHT22;12308;50.948;4.706;2023-09-07T09:26:00;24.60;99.90
24146;DHT22;12308;50.948;4.706;2023-09-07T09:28:26;24.90;99.90
24146;DHT22;12308;50.948;4.706;2023-09-07T09:30:53;25.00;99.90
24146;DHT22;12308;50.948;4.706;2023-09-07T09:33:20;25.20;99.90
24146;DHT22;12308;50.948;4.706;2023-09-07T09:35:47;25.30;99.90
24146;DHT22;12308;50.948;4.706;2023-09-07T09:38:13;25.40;99.90
24146;DHT22;12308;50.948;4.706;2023-09-07T09:40:39;25.30;99.90
24146;DHT22;12308;50.948;4.706;2023-09-07T09:43:05;25.30;99.90
24146;DHT22;12308;50.948;4.706;2023-09-07T09:45:32;25.30;99.90
24146;DHT22;12308;50.948;4.706;2023-09-07T09:47:58;25.40;99.90
24146;DHT22;12308;50.948;4.706;2023-09-07T09:50:27;25.70;99.90
24146;DHT22;12308;50.948;4.706;2023-09-07T09:52:53;25.90;99.90
24146;DHT22;12308;50.948;4.706;2023-09-07T09:55:19;25.80;99.90
24146;DHT22;12308;50.948;4.706;2023-09-07T09:57:45;25.90;99.90
24146;DHT22;12308;50.948;4.706;2023-09-07T10:00:11;26.00;99.90
24146;DHT22;12308;50.948;4.706;2023-09-07T10:02:59;26.00;99.90
24146;DHT22;12308;50.948;4.706;2023-09-07T10:05:26;26.00;99.90
24146;DHT22;12308;50.948;4.706;2023-09-07T10:07:52;26.10;99.90
24146;DHT22;12308;50.948;4.706;2023-09-07T10:10:19;26.00;99.90
24146;DHT22;12308;50.948;4.706;2023-09-07T10:12:51;26.00;99.90
24146;DHT22;12308;50.948;4.706;2023-09-07T10:15:24;26.10;99.90
24146;DHT22;12308;50.948;4.706;2023-09-07T10:17:50;26.20;99.90
24146;DHT22;12308;50.948;4.706;2023-09-07T10:20:27;26.30;99.90
24146;DHT22;12308;50.948;4.706;2023-09-07T10:23:05;26.40;99.90
24146;DHT22;12308;50.948;4.706;2023-09-07T10:25:31;26.40;99.90
24146;DHT22;12308;50.948;4.706;2023-09-07T10:27:57;26.40;99.90
24146;DHT22;12308;50.948;4.706;2023-09-07T10:30:25;26.50;99.90
24146;DHT22;12308;50.948;4.706;2023-09-07T10:32:51;26.50;99.90
24146;DHT22;12308;50.948;4.706;2023-09-07T10:35:19;26.50;99.90
24146;DHT22;12308;50.948;4.706;2023-09-07T10:37:48;26.50;99.90
24146;DHT22;12308;50.948;4.706;2023-09-07T10:40:19;26.60;99.90
24146;DHT22;12308;50.948;4.706;2023-09-07T10:42:46;26.60;99.90
24146;DHT22;12308;50.948;4.706;2023-09-07T10:45:16;26.70;99.90
24146;DHT22;12308;50.948;4.706;2023-09-07T10:47:43;26.70;99.90
24146;DHT22;12308;50.948;4.706;2023-09-07T10:50:13;26.90;99.90
24146;DHT22;12308;50.948;4.706;2023-09-07T10:52:40;27.00;99.90
24146;DHT22;12308;50.948;4.706;2023-09-07T10:55:10;27.00;99.90
24146;DHT22;12308;50.948;4.706;2023-09-07T10:57:43;27.10;99.90
24146;DHT22;12308;50.948;4.706;2023-09-07T11:00:11;27.10;99.90
24146;DHT22;12308;50.948;4.706;2023-09-07T11:02:38;27.10;99.90
24146;DHT22;12308;50.948;4.706;2023-09-07T11:05:04;27.10;99.90
24146;DHT22;12308;50.948;4.706;2023-09-07T11:07:30;27.10;99.90
24146;DHT22;12308;50.948;4.706;2023-09-07T11:09:56;27.30;99.90
24146;DHT22;12308;50.948;4.706;2023-09-07T11:12:22;27.30;99.90
24146;DHT22;12308;50.948;4.706;2023-09-07T11:14:48;27.30;99.90
24146;DHT22;12308;50.948;4.706;2023-09-07T11:17:13;27.30;99.90
24146;DHT22;12308;50.948;4.706;2023-09-07T11:19:41;27.30;99.90
24146;DHT22;12308;50.948;4.706;2023-09-07T11:22:09;27.30;99.90
24146;DHT22;12308;50.948;4.706;2023-09-07T11:24:35;27.30;99.90
24146;DHT22;12308;50.948;4.706;2023-09-07T11:27:01;27.40;99.90
24146;DHT22;12308;50.948;4.706;2023-09-07T11:29:34;27.40;99.90
24146;DHT22;12308;50.948;4.706;2023-09-07T11:32:09;27.40;99.90
24146;DHT22;12308;50.948;4.706;2023-09-07T11:34:35;27.40;99.90
24146;DHT22;12308;50.948;4.706;2023-09-07T11:37:03;27.30;99.90
24146;DHT22;12308;50.948;4.706;2023-09-07T11:39:29;27.40;99.90
24146;DHT22;12308;50.948;4.706;2023-09-07T11:41:55;27.50;99.90
24146;DHT22;12308;50.948;4.706;2023-09-07T11:44:20;27.60;99.90
24146;DHT22;12308;50.948;4.706;2023-09-07T11:46:46;27.60;99.90
24146;DHT22;12308;50.948;4.706;2023-09-07T11:49:12;27.70;99.90
24146;DHT22;12308;50.948;4.706;2023-09-07T11:51:39;28.00;99.90
24146;DHT22;12308;50.948;4.706;2023-09-07T11:54:04;28.00;99.90
24146;DHT22;12308;50.948;4.706;2023-09-07T11:56:30;28.00;99.90
24146;DHT22;12308;50.948;4.706;2023-09-07T11:58:57;27.90;99.90
24146;DHT22;12308;50.948;4.706;2023-09-07T12:01:23;28.00;99.90
24146;DHT22;12308;50.948;4.706;2023-09-07T12:03:48;28.10;99.90
24146;DHT22;12308;50.948;4.706;2023-09-07T12:06:14;28.20;99.90
24146;DHT22;12308;50.948;4.706;2023-09-07T12:08:42;28.10;99.90
24146;DHT22;12308;50.948;4.706;2023-09-07T12:11:22;28.30;99.90
24146;DHT22;12308;50.948;4.706;2023-09-07T12:13:48;28.30;99.90
24146;DHT22;12308;50.948;4.706;2023-09-07T12:16:14;28.30;99.90
24146;DHT22;12308;50.948;4.706;2023-09-07T12:18:40;28.30;99.90
24146;DHT22;12308;50.948;4.706;2023-09-07T12:21:05;28.30;99.90
24146;DHT22;12308;50.948;4.706;2023-09-07T12:23:31;28.50;99.90
24146;DHT22;12308;50.948;4.706;2023-09-07T12:25:57;28.50;99.90
24146;DHT22;12308;50.948;4.706;2023-09-07T12:28:22;28.40;99.90
24146;DHT22;12308;50.948;4.706;2023-09-07T12:30:48;28.50;99.90
24146;DHT22;12308;50.948;4.706;2023-09-07T12:33:14;28.40;99.90
24146;DHT22;12308;50.948;4.706;2023-09-07T12:35:40;28.50;99.90
24146;DHT22;12308;50.948;4.706;2023-09-07T12:38:05;28.70;99.90
24146;DHT22;12308;50.948;4.706;2023-09-07T12:40:32;28.90;99.90
24146;DHT22;12308;50.948;4.706;2023-09-07T12:42:58;28.80;99.90
24146;DHT22;12308;50.948;4.706;2023-09-07T12:45:24;28.70;99.90
24146;DHT22;12308;50.948;4.706;2023-09-07T12:47:49;28.70;99.90
24146;DHT22;12308;50.948;4.706;2023-09-07T12:50:15;28.80;99.90
24146;DHT22;12308;50.948;4.706;2023-09-07T12:52:41;28.90;99.90
24146;DHT22;12308;50.948;4.706;2023-09-07T12:55:07;28.90;99.90
24146;DHT22;12308;50.948;4.706;2023-09-07T12:57:33;29.00;99.90
24146;DHT22;12308;50.948;4.706;2023-09-07T12:59:59;28.90;99.90
24146;DHT22;12308;50.948;4.706;2023-09-07T13:02:25;29.10;99.90
24146;DHT22;12308;50.948;4.706;2023-09-07T13:04:50;29.00;99.90
24146;DHT22;12308;50.948;4.706;2023-09-07T13:07:16;29.10;99.90
24146;DHT22;12308;50.948;4.706;2023-09-07T13:09:45;29.10;99.90
24146;DHT22;12308;50.948;4.706;2023-09-07T13:12:11;29.20;99.90
24146;DHT22;12308;50.948;4.706;2023-09-07T13:14:37;29.10;99.90
24146;DHT22;12308;50.948;4.706;2023-09-07T13:17:03;29.10;99.90
24146;DHT22;12308;50.948;4.706;2023-09-07T13:19:29;29.10;99.90
24146;DHT22;12308;50.948;4.706;2023-09-07T13:21:54;29.00;99.90
24146;DHT22;12308;50.948;4.706;2023-09-07T13:24:20;29.00;99.90
24146;DHT22;12308;50.948;4.706;2023-09-07T13:26:51;29.00;99.90
24146;DHT22;12308;50.948;4.706;2023-09-07T13:29:17;29.20;99.90
24146;DHT22;12308;50.948;4.706;2023-09-07T13:31:42;29.10;99.90
24146;DHT22;12308;50.948;4.706;2023-09-07T13:34:08;29.00;99.90
24146;DHT22;12308;50.948;4.706;2023-09-07T13:36:34;29.00;99.90
24146;DHT22;12308;50.948;4.706;2023-09-07T13:38:59;29.00;99.90
24146;DHT22;12308;50.948;4.706;2023-09-07T13:41:25;29.00;99.90
24146;DHT22;12308;50.948;4.706;2023-09-07T13:43:51;29.20;99.90
24146;DHT22;12308;50.948;4.706;2023-09-07T13:46:19;29.40;99.90
24146;DHT22;12308;50.948;4.706;2023-09-07T13:48:44;29.40;99.90
24146;DHT22;12308;50.948;4.706;2023-09-07T13:51:10;29.30;99.90
24146;DHT22;12308;50.948;4.706;2023-09-07T13:53:36;29.20;99.90
24146;DHT22;12308;50.948;4.706;2023-09-07T13:56:02;29.20;99.90
24146;DHT22;12308;50.948;4.706;2023-09-07T13:58:27;29.30;99.90
24146;DHT22;12308;50.948;4.706;2023-09-07T14:00:53;29.30;99.90
24146;DHT22;12308;50.948;4.706;2023-09-07T14:03:19;29.30;99.90
24146;DHT22;12308;50.948;4.706;2023-09-07T14:05:45;29.30;99.90
24146;DHT22;12308;50.948;4.706;2023-09-07T14:08:10;29.30;99.90
24146;DHT22;12308;50.948;4.706;2023-09-07T14:10:36;29.40;99.90
24146;DHT22;12308;50.948;4.706;2023-09-07T14:13:02;29.50;99.90
24146;DHT22;12308;50.948;4.706;2023-09-07T14:15:28;29.60;99.90
24146;DHT22;12308;50.948;4.706;2023-09-07T14:17:54;29.80;99.90
24146;DHT22;12308;50.948;4.706;2023-09-07T14:20:19;29.90;99.90
24146;DHT22;12308;50.948;4.706;2023-09-07T14:22:45;30.00;99.90
24146;DHT22;12308;50.948;4.706;2023-09-07T14:25:11;29.80;99.90
24146;DHT22;12308;50.948;4.706;2023-09-07T14:27:36;29.60;99.90
24146;DHT22;12308;50.948;4.706;2023-09-07T14:30:02;29.50;99.90
24146;DHT22;12308;50.948;4.706;2023-09-07T14:32:28;29.50;99.90
24146;DHT22;12308;50.948;4.706;2023-09-07T14:34:53;29.60;99.90
24146;DHT22;12308;50.948;4.706;2023-09-07T14:37:19;29.60;99.90
24146;DHT22;12308;50.948;4.706;2023-09-07T14:39:45;29.50;99.90
24146;DHT22;12308;50.948;4.706;2023-09-07T14:42:13;29.40;99.90
24146;DHT22;12308;50.948;4.706;2023-09-07T14:44:42;29.50;99.90
24146;DHT22;12308;50.948;4.706;2023-09-07T14:47:08;29.60;99.90
24146;DHT22;12308;50.948;4.706;2023-09-07T14:49:35;29.70;99.90
24146;DHT22;12308;50.948;4.706;2023-09-07T14:52:01;29.70;99.90
24146;DHT22;12308;50.948;4.706;2023-09-07T14:54:27;29.70;99.90
24146;DHT22;12308;50.948;4.706;2023-09-07T14:56:52;29.70;99.90
24146;DHT22;12308;50.948;4.706;2023-09-07T14:59:18;29.80;99.90
24146;DHT22;12308;50.948;4.706;2023-09-07T15:01:44;29.80;99.90
24146;DHT22;12308;50.948;4.706;2023-09-07T15:04:10;29.70;99.90
24146;DHT22;12308;50.948;4.706;2023-09-07T15:06:35;29.80;99.90
24146;DHT22;12308;50.948;4.706;2023-09-07T15:09:02;29.70;99.90
24146;DHT22;12308;50.948;4.706;2023-09-07T15:11:29;29.70;99.90
24146;DHT22;12308;50.948;4.706;2023-09-07T15:13:55;29.70;99.90
24146;DHT22;12308;50.948;4.706;2023-09-07T15:16:21;29.80;99.90
24146;DHT22;12308;50.948;4.706;2023-09-07T15:18:48;29.90;99.90
24146;DHT22;12308;50.948;4.706;2023-09-07T15:21:17;30.00;99.90
24146;DHT22;12308;50.948;4.706;2023-09-07T15:23:43;30.00;99.90
24146;DHT22;12308;50.948;4.706;2023-09-07T15:26:09;30.00;99.90